createdAt,value
2023-05-22T00:00:23.740Z,8.77
2023-05-22T00:03:12.016Z,8.73
2023-05-22T00:05:41.723Z,8.70
2023-05-22T00:08:13.098Z,8.73
2023-05-22T00:10:41.274Z,8.75
2023-05-22T00:13:09.985Z,8.75
2023-05-22T00:15:38.167Z,8.71
2023-05-22T00:18:07.088Z,8.71
2023-05-22T00:20:39.559Z,8.61
2023-05-22T00:23:11.807Z,8.55
2023-05-22T00:25:41.418Z,8.49
2023-05-22T00:28:09.822Z,8.45
2023-05-22T00:30:37.958Z,8.44
2023-05-22T00:33:06.547Z,8.43
2023-05-22T00:35:34.574Z,8.47
2023-05-22T00:38:05.684Z,8.45
2023-05-22T00:40:33.673Z,8.41
2023-05-22T00:43:08.970Z,8.33
2023-05-22T00:45:38.016Z,8.27
2023-05-22T00:48:06.314Z,8.19
2023-05-22T00:50:34.412Z,8.13
2023-05-22T00:53:02.673Z,8.11
2023-05-22T00:55:31.287Z,8.09
2023-05-22T00:57:59.972Z,8.11
2023-05-22T01:00:28.179Z,8.11
2023-05-22T01:02:56.446Z,8.07
2023-05-22T01:05:26.196Z,8.09
2023-05-22T01:07:54.650Z,8.02
2023-05-22T01:10:22.445Z,7.95
2023-05-22T01:13:27.945Z,7.87
2023-05-22T01:16:19.196Z,7.76
2023-05-22T01:19:11.489Z,7.76
2023-05-22T01:22:01.947Z,7.73
2023-05-22T01:24:37.700Z,7.70
2023-05-22T01:27:35.511Z,7.68
2023-05-22T01:30:41.594Z,7.66
2023-05-22T01:33:10.384Z,7.64
2023-05-22T01:35:39.996Z,7.57
2023-05-22T01:38:08.233Z,7.61
2023-05-22T01:40:37.893Z,7.61
2023-05-22T01:43:06.318Z,7.60
2023-05-22T01:45:35.468Z,7.61
2023-05-22T01:48:03.283Z,7.60
2023-05-22T01:50:31.926Z,7.57
2023-05-22T01:53:14.041Z,7.54
2023-05-22T01:56:05.610Z,7.47
2023-05-22T01:58:49.806Z,7.44
2023-05-22T02:01:20.153Z,7.38
2023-05-22T02:03:52.245Z,7.32
2023-05-22T02:06:20.856Z,7.31
2023-05-22T02:08:48.850Z,7.28
2023-05-22T02:11:17.375Z,7.29
2023-05-22T02:13:45.309Z,7.29
2023-05-22T02:16:14.346Z,7.27
2023-05-22T02:18:42.475Z,7.23
2023-05-22T02:21:11.340Z,7.18
2023-05-22T02:23:39.142Z,7.19
2023-05-22T02:26:07.887Z,7.17
2023-05-22T02:28:35.673Z,7.20
2023-05-22T02:31:04.122Z,7.14
2023-05-22T02:33:32.097Z,7.19
2023-05-22T02:36:01.375Z,7.20
2023-05-22T02:38:29.426Z,7.20
2023-05-22T02:40:57.803Z,7.17
2023-05-22T02:43:26.396Z,7.19
2023-05-22T02:45:55.058Z,7.14
2023-05-22T02:48:23.002Z,7.15
2023-05-22T02:50:51.471Z,7.16
2023-05-22T02:53:20.137Z,7.13
2023-05-22T02:55:48.887Z,7.13
2023-05-22T02:58:18.347Z,7.21
2023-05-22T03:00:46.443Z,7.24
2023-05-22T03:03:14.576Z,7.25
2023-05-22T03:05:43.544Z,7.29
2023-05-22T03:08:11.297Z,7.32
2023-05-22T03:10:40.098Z,7.36
2023-05-22T03:13:08.129Z,7.40
2023-05-22T03:15:37.122Z,7.43
2023-05-22T03:18:13.034Z,7.51
2023-05-22T03:20:42.483Z,7.61
2023-05-22T03:23:13.315Z,7.72
2023-05-22T03:25:41.962Z,7.79
2023-05-22T03:28:09.891Z,7.84
2023-05-22T03:30:41.580Z,7.92
2023-05-22T03:33:18.479Z,7.97
2023-05-22T03:35:46.691Z,8.08
2023-05-22T03:38:14.613Z,8.14
2023-05-22T03:40:42.710Z,8.23
2023-05-22T03:43:11.378Z,8.29
2023-05-22T03:45:40.821Z,8.38
2023-05-22T03:48:11.158Z,8.51
2023-05-22T03:50:39.890Z,8.60
2023-05-22T03:53:08.094Z,8.78
2023-05-22T03:55:36.464Z,8.90
2023-05-22T03:58:04.535Z,9.02
2023-05-22T04:00:33.736Z,9.14
2023-05-22T04:03:01.974Z,9.24
2023-05-22T04:05:32.106Z,9.35
2023-05-22T04:08:00.155Z,9.49
2023-05-22T04:10:28.765Z,9.64
2023-05-22T04:12:56.760Z,9.80
2023-05-22T04:15:25.501Z,9.90
2023-05-22T04:17:53.882Z,10.05
2023-05-22T04:20:22.711Z,10.20
2023-05-22T04:22:52.304Z,10.34
2023-05-22T04:25:21.809Z,10.54
2023-05-22T04:27:50.832Z,10.78
2023-05-22T04:30:22.375Z,11.02
2023-05-22T04:32:50.205Z,11.26
2023-05-22T04:35:19.799Z,11.45
2023-05-22T04:37:47.860Z,11.71
2023-05-22T04:40:16.048Z,12.00
2023-05-22T04:42:45.059Z,12.29
2023-05-22T04:45:14.678Z,12.57
2023-05-22T04:47:42.426Z,12.92
2023-05-22T04:50:12.055Z,13.25
2023-05-22T04:52:39.978Z,13.50
2023-05-22T04:55:08.849Z,13.89
2023-05-22T04:57:37.070Z,14.24
2023-05-22T05:00:06.694Z,14.62
2023-05-22T05:02:36.373Z,14.98
2023-05-22T05:05:05.118Z,15.47
2023-05-22T05:07:32.935Z,15.95
2023-05-22T05:10:01.366Z,16.30
2023-05-22T05:12:29.765Z,16.71
2023-05-22T05:14:57.789Z,17.14
2023-05-22T05:17:25.612Z,17.48
2023-05-22T05:19:54.397Z,17.74
2023-05-22T05:22:23.162Z,17.94
2023-05-22T05:24:51.119Z,18.41
2023-05-22T05:27:19.028Z,18.82
2023-05-22T05:29:48.179Z,19.23
2023-05-22T05:32:24.943Z,19.64
2023-05-22T05:35:13.663Z,19.76
2023-05-22T05:38:02.095Z,19.85
2023-05-22T05:40:31.771Z,19.95
2023-05-22T05:42:59.616Z,20.02
2023-05-22T05:45:28.327Z,20.36
2023-05-22T05:47:57.933Z,20.31
2023-05-22T05:50:26.923Z,19.98
2023-05-22T05:52:56.258Z,19.87
2023-05-22T05:55:24.357Z,19.81
2023-05-22T05:57:56.541Z,19.87
2023-05-22T06:00:47.861Z,20.12
2023-05-22T06:03:15.908Z,20.43
2023-05-22T06:06:07.370Z,20.77
2023-05-22T06:08:54.562Z,21.24
2023-05-22T06:11:29.233Z,21.45
2023-05-22T06:13:57.139Z,21.71
2023-05-22T06:16:26.740Z,21.88
2023-05-22T06:18:55.193Z,22.01
2023-05-22T06:21:24.978Z,22.05
2023-05-22T06:23:52.601Z,22.25
2023-05-22T06:26:22.333Z,22.40
2023-05-22T06:28:52.364Z,22.38
2023-05-22T06:31:23.310Z,22.56
2023-05-22T06:33:52.515Z,22.46
2023-05-22T06:36:22.243Z,22.59
2023-05-22T06:38:50.152Z,22.62
2023-05-22T06:41:39.340Z,22.88
2023-05-22T06:44:09.748Z,23.03
2023-05-22T06:46:40.686Z,23.26
2023-05-22T06:49:09.215Z,23.68
2023-05-22T06:51:44.207Z,23.63
2023-05-22T06:54:15.732Z,23.91
2023-05-22T06:56:46.758Z,24.43
2023-05-22T06:59:17.405Z,24.44
2023-05-22T07:01:51.829Z,24.37
2023-05-22T07:04:28.408Z,24.60
2023-05-22T07:07:07.903Z,24.42
2023-05-22T07:09:36.194Z,24.38
2023-05-22T07:12:06.997Z,24.53
2023-05-22T07:14:35.533Z,24.41
2023-05-22T07:17:04.917Z,24.63
2023-05-22T07:19:39.631Z,24.25
2023-05-22T07:22:08.113Z,24.37
2023-05-22T07:24:38.562Z,24.55
2023-05-22T07:27:09.680Z,24.65
2023-05-22T07:29:38.991Z,24.95
2023-05-22T07:32:16.249Z,24.87
2023-05-22T07:34:46.843Z,24.80
2023-05-22T07:37:16.338Z,24.98
2023-05-22T07:39:48.110Z,24.91
2023-05-22T07:42:16.988Z,24.73
2023-05-22T07:44:50.773Z,24.87
2023-05-22T07:47:21.569Z,24.90
2023-05-22T07:49:50.833Z,24.89
2023-05-22T07:52:20.128Z,24.82
2023-05-22T07:54:48.132Z,24.72
2023-05-22T07:57:18.088Z,24.71
2023-05-22T07:59:46.308Z,24.65
2023-05-22T08:02:15.253Z,24.98
2023-05-22T08:04:44.836Z,25.04
2023-05-22T08:07:13.499Z,24.85
2023-05-22T08:09:41.368Z,24.80
2023-05-22T08:12:10.329Z,24.66
2023-05-22T08:14:38.754Z,24.89
2023-05-22T08:17:07.397Z,25.02
2023-05-22T08:19:35.503Z,25.23
2023-05-22T08:22:03.849Z,25.32
2023-05-22T08:24:32.172Z,25.14
2023-05-22T08:27:01.489Z,25.16
2023-05-22T08:29:29.728Z,24.89
2023-05-22T08:31:58.750Z,24.98
2023-05-22T08:34:27.034Z,25.30
2023-05-22T08:36:57.162Z,25.21
2023-05-22T08:39:25.745Z,24.57
2023-05-22T08:41:54.116Z,24.20
2023-05-22T08:44:22.378Z,23.95
2023-05-22T08:46:52.988Z,23.84
2023-05-22T08:49:23.973Z,23.87
2023-05-22T08:51:58.503Z,23.70
2023-05-22T08:54:27.652Z,23.93
2023-05-22T08:56:57.475Z,24.02
2023-05-22T08:59:26.121Z,23.80
2023-05-22T09:01:54.729Z,23.57
2023-05-22T09:04:24.039Z,23.38
2023-05-22T09:06:52.845Z,23.24
2023-05-22T09:09:21.033Z,23.24
2023-05-22T09:11:50.831Z,23.24
2023-05-22T09:14:19.115Z,23.39
2023-05-22T09:16:49.070Z,23.67
2023-05-22T09:19:17.081Z,23.71
2023-05-22T09:21:45.304Z,23.33
2023-05-22T09:24:13.742Z,23.23
2023-05-22T09:26:42.511Z,23.19
2023-05-22T09:29:10.515Z,22.98
2023-05-22T09:31:43.084Z,22.80
2023-05-22T09:34:15.899Z,22.38
2023-05-22T09:36:44.491Z,22.47
2023-05-22T09:39:13.083Z,22.46
2023-05-22T09:41:41.666Z,22.45
2023-05-22T09:44:16.912Z,22.54
2023-05-22T09:46:46.982Z,22.53
2023-05-22T09:49:16.700Z,22.49
2023-05-22T09:51:49.636Z,22.30
2023-05-22T09:54:20.317Z,22.26
2023-05-22T09:56:50.907Z,22.29
2023-05-22T09:59:27.201Z,22.40
2023-05-22T10:01:56.173Z,22.60
2023-05-22T10:04:24.339Z,22.76
2023-05-22T10:06:54.472Z,22.91
2023-05-22T10:09:25.304Z,23.11
2023-05-22T10:11:55.092Z,23.36
2023-05-22T10:14:24.546Z,23.30
2023-05-22T10:16:54.263Z,23.23
2023-05-22T10:19:27.240Z,22.95
2023-05-22T10:21:57.531Z,22.94
2023-05-22T10:24:26.102Z,22.80
2023-05-22T10:26:54.082Z,22.78
2023-05-22T10:29:39.098Z,22.62
2023-05-22T10:32:13.851Z,22.75
2023-05-22T10:35:19.204Z,22.90
2023-05-22T10:38:12.547Z,23.04
2023-05-22T10:40:42.340Z,23.20
2023-05-22T10:43:11.873Z,23.29
2023-05-22T10:48:14.358Z,23.32
2023-05-22T10:50:53.420Z,23.45
2023-05-22T10:53:26.477Z,23.67
2023-05-22T10:55:58.190Z,23.75
2023-05-22T10:58:37.615Z,23.79
2023-05-22T11:01:21.142Z,23.70
2023-05-22T11:04:13.503Z,23.70
2023-05-22T11:06:50.205Z,23.94
2023-05-22T11:09:31.538Z,24.05
2023-05-22T11:12:20.963Z,24.11
2023-05-22T11:15:12.067Z,23.94
2023-05-22T11:17:39.997Z,23.61
2023-05-22T11:20:27.273Z,23.66
2023-05-22T11:23:02.070Z,23.72
2023-05-22T11:25:30.644Z,23.53
2023-05-22T11:27:58.957Z,23.43
2023-05-22T11:30:29.017Z,23.60
2023-05-22T11:33:01.059Z,23.72
2023-05-22T11:35:30.142Z,23.81
2023-05-22T11:37:59.125Z,23.67
2023-05-22T11:40:29.881Z,23.63
2023-05-22T11:42:57.827Z,23.14
2023-05-22T11:45:26.438Z,23.32
2023-05-22T11:47:54.251Z,23.35
2023-05-22T11:50:40.073Z,23.38
2023-05-22T11:53:09.225Z,23.44
2023-05-22T11:55:37.480Z,23.52
2023-05-22T11:58:05.211Z,23.75
2023-05-22T12:00:33.702Z,23.80
2023-05-22T12:03:02.185Z,23.71
2023-05-22T12:05:32.829Z,23.61
2023-05-22T12:08:01.140Z,23.47
2023-05-22T12:10:29.483Z,23.24
2023-05-22T12:12:57.628Z,22.91
2023-05-22T12:15:26.278Z,22.96
2023-05-22T12:17:57.641Z,22.91
2023-05-22T12:20:31.302Z,23.02
2023-05-22T12:23:00.363Z,23.11
2023-05-22T12:25:34.316Z,23.21
2023-05-22T12:28:02.622Z,23.17
2023-05-22T12:30:41.494Z,23.18
2023-05-22T12:33:15.954Z,23.21
2023-05-22T12:35:44.746Z,23.37
2023-05-22T12:38:13.742Z,23.50
2023-05-22T12:40:43.000Z,23.43
2023-05-22T12:43:10.840Z,23.59
2023-05-22T12:45:41.545Z,23.63
2023-05-22T12:48:10.185Z,23.86
2023-05-22T12:50:40.042Z,23.97
2023-05-22T12:53:08.265Z,23.81
2023-05-22T12:55:37.036Z,23.61
2023-05-22T12:58:05.575Z,23.47
2023-05-22T13:00:34.403Z,23.30
2023-05-22T13:03:03.317Z,23.37
2023-05-22T13:05:31.833Z,23.63
2023-05-22T13:07:59.894Z,23.86
2023-05-22T13:10:28.237Z,23.91
2023-05-22T13:12:56.178Z,23.90
2023-05-22T13:15:24.712Z,23.99
2023-05-22T13:17:52.568Z,23.73
2023-05-22T13:20:21.446Z,23.45
2023-05-22T13:22:49.951Z,23.28
2023-05-22T13:25:19.489Z,23.22
2023-05-22T13:27:47.489Z,23.18
2023-05-22T13:30:16.924Z,23.07
2023-05-22T13:32:44.965Z,22.89
2023-05-22T13:35:13.505Z,22.88
2023-05-22T13:37:41.246Z,22.79
2023-05-22T13:40:10.206Z,22.82
2023-05-22T13:42:38.459Z,22.87
2023-05-22T13:45:08.400Z,23.01
2023-05-22T13:47:36.840Z,23.08
2023-05-22T13:50:06.072Z,23.08
2023-05-22T13:52:34.234Z,23.22
2023-05-22T13:55:02.635Z,23.36
2023-05-22T13:57:30.769Z,23.24
2023-05-22T13:59:59.526Z,23.01
2023-05-22T14:02:27.439Z,23.07
2023-05-22T14:04:56.348Z,22.97
2023-05-22T14:07:24.976Z,23.01
2023-05-22T14:09:53.158Z,23.02
2023-05-22T14:12:21.516Z,23.07
2023-05-22T14:14:49.792Z,23.15
2023-05-22T14:17:17.743Z,23.28
2023-05-22T14:19:45.993Z,23.34
2023-05-22T14:22:14.037Z,23.07
2023-05-22T14:24:42.238Z,23.05
2023-05-22T14:27:10.452Z,23.04
2023-05-22T14:29:38.890Z,23.03
2023-05-22T14:32:07.542Z,23.15
2023-05-22T14:34:36.209Z,23.23
2023-05-22T14:37:04.054Z,23.32
2023-05-22T14:39:32.521Z,23.51
2023-05-22T14:42:01.213Z,23.60
2023-05-22T14:44:29.786Z,23.47
2023-05-22T14:46:57.707Z,23.32
2023-05-22T14:49:26.194Z,23.26
2023-05-22T14:51:54.987Z,23.12
2023-05-22T14:54:24.198Z,23.00
2023-05-22T14:56:52.253Z,22.89
2023-05-22T14:59:21.642Z,22.61
2023-05-22T15:01:50.786Z,22.50
2023-05-22T15:04:19.447Z,22.44
2023-05-22T15:06:47.522Z,22.33
2023-05-22T15:09:16.033Z,22.17
2023-05-22T15:11:47.388Z,22.10
2023-05-22T15:14:15.989Z,22.09
2023-05-22T15:16:43.761Z,22.04
2023-05-22T15:19:11.854Z,22.01
2023-05-22T15:21:42.306Z,22.07
2023-05-22T15:24:10.969Z,22.13
2023-05-22T15:26:38.778Z,22.23
2023-05-22T15:29:07.370Z,22.31
2023-05-22T15:31:35.488Z,22.49
2023-05-22T15:34:03.811Z,22.62
2023-05-22T15:36:35.240Z,22.77
2023-05-22T15:39:03.923Z,22.87
2023-05-22T15:41:31.744Z,22.89
2023-05-22T15:44:00.581Z,23.03
2023-05-22T15:46:28.538Z,23.07
2023-05-22T15:48:56.939Z,23.10
2023-05-22T15:51:25.446Z,23.19
2023-05-22T15:53:54.067Z,23.35
2023-05-22T15:56:23.165Z,23.25
2023-05-22T15:58:51.550Z,23.20
2023-05-22T16:01:19.454Z,23.16
2023-05-22T16:03:47.908Z,23.28
2023-05-22T16:06:16.160Z,23.25
2023-05-22T16:08:44.548Z,23.34
2023-05-22T16:11:12.727Z,23.43
2023-05-22T16:13:40.946Z,23.36
2023-05-22T16:16:09.185Z,23.29
2023-05-22T16:18:37.248Z,23.24
2023-05-22T16:21:05.591Z,23.01
2023-05-22T16:23:33.729Z,22.76
2023-05-22T16:26:01.757Z,22.71
2023-05-22T16:28:30.344Z,22.68
2023-05-22T16:30:58.543Z,22.56
2023-05-22T16:33:26.930Z,22.57
2023-05-22T16:35:54.581Z,22.40
2023-05-22T16:38:23.613Z,22.24
2023-05-22T16:40:53.258Z,22.15
2023-05-22T16:43:22.124Z,22.04
2023-05-22T16:45:51.882Z,21.89
2023-05-22T16:48:20.480Z,21.77
2023-05-22T16:50:48.804Z,21.73
2023-05-22T16:53:17.552Z,21.69
2023-05-22T16:55:45.779Z,21.57
2023-05-22T16:58:14.249Z,21.45
2023-05-22T17:00:42.822Z,21.41
2023-05-22T17:03:12.429Z,21.29
2023-05-22T17:05:41.135Z,21.27
2023-05-22T17:08:09.850Z,21.24
2023-05-22T17:10:37.758Z,21.20
2023-05-22T17:13:06.359Z,21.16
2023-05-22T17:15:34.842Z,21.16
2023-05-22T17:18:02.712Z,21.13
2023-05-22T17:20:33.505Z,21.03
2023-05-22T17:23:01.542Z,21.00
2023-05-22T17:25:29.861Z,21.02
2023-05-22T17:27:57.753Z,20.97
2023-05-22T17:30:26.101Z,20.91
2023-05-22T17:32:56.039Z,20.91
2023-05-22T17:35:24.611Z,20.86
2023-05-22T17:37:52.433Z,20.81
2023-05-22T17:40:21.101Z,20.70
2023-05-22T17:42:49.320Z,20.73
2023-05-22T17:45:17.811Z,20.66
2023-05-22T17:47:46.295Z,20.55
2023-05-22T17:50:14.902Z,20.50
2023-05-22T17:52:42.772Z,20.47
2023-05-22T17:55:10.976Z,20.34
2023-05-22T17:57:39.192Z,20.29
2023-05-22T18:00:11.033Z,20.29
2023-05-22T18:02:43.280Z,20.14
2023-05-22T18:05:12.245Z,20.07
2023-05-22T18:07:40.372Z,19.96
2023-05-22T18:10:09.114Z,19.80
2023-05-22T18:12:38.271Z,19.64
2023-05-22T18:15:10.133Z,19.53
2023-05-22T18:17:38.833Z,19.38
2023-05-22T18:20:08.801Z,19.18
2023-05-22T18:22:38.229Z,18.96
2023-05-22T18:25:07.985Z,18.74
2023-05-22T18:27:36.616Z,18.56
2023-05-22T18:30:06.789Z,18.41
2023-05-22T18:32:35.060Z,18.27
2023-05-22T18:35:04.344Z,18.05
2023-05-22T18:37:32.559Z,17.83
2023-05-22T18:40:01.210Z,17.69
2023-05-22T18:42:29.672Z,17.48
2023-05-22T18:44:59.317Z,17.32
2023-05-22T18:47:27.205Z,17.11
2023-05-22T18:49:55.804Z,16.84
2023-05-22T18:52:23.633Z,16.72
2023-05-22T18:54:51.921Z,16.53
2023-05-22T18:57:19.851Z,16.41
2023-05-22T18:59:48.643Z,16.21
2023-05-22T19:02:17.332Z,16.08
2023-05-22T19:04:46.036Z,15.89
2023-05-22T19:07:14.165Z,15.78
2023-05-22T19:09:42.450Z,15.48
2023-05-22T19:12:11.013Z,15.32
2023-05-22T19:14:39.302Z,15.19
2023-05-22T19:17:07.611Z,15.04
2023-05-22T19:19:36.251Z,14.89
2023-05-22T19:22:04.181Z,14.82
2023-05-22T19:24:32.472Z,14.67
2023-05-22T19:27:00.727Z,14.55
2023-05-22T19:29:29.164Z,14.30
2023-05-22T19:31:57.067Z,14.24
2023-05-22T19:34:25.455Z,14.20
2023-05-22T19:36:57.910Z,14.10
2023-05-22T19:39:27.564Z,14.04
2023-05-22T19:41:55.625Z,13.94
2023-05-22T19:44:24.306Z,13.85
2023-05-22T19:46:52.408Z,13.77
2023-05-22T19:49:20.833Z,13.68
2023-05-22T19:51:49.152Z,13.59
2023-05-22T19:54:17.434Z,13.52
2023-05-22T19:56:45.354Z,13.42
2023-05-22T19:59:13.578Z,13.39
2023-05-22T20:01:41.610Z,13.26
2023-05-22T20:04:10.573Z,13.21
2023-05-22T20:06:38.900Z,13.12
2023-05-22T20:09:07.954Z,13.03
2023-05-22T20:11:36.090Z,12.91
2023-05-22T20:14:05.387Z,12.88
2023-05-22T20:16:34.067Z,12.81
2023-05-22T20:19:04.257Z,12.75
2023-05-22T20:21:32.653Z,12.63
2023-05-22T20:24:01.135Z,12.59
2023-05-22T20:26:29.406Z,12.50
2023-05-22T20:28:57.731Z,12.43
2023-05-22T20:31:26.333Z,12.37
2023-05-22T20:33:55.874Z,12.30
2023-05-22T20:36:25.205Z,12.25
2023-05-22T20:38:54.875Z,12.23
2023-05-22T20:41:23.011Z,12.14
2023-05-22T20:43:51.411Z,12.07
2023-05-22T20:46:19.678Z,12.04
2023-05-22T20:48:49.082Z,11.98
2023-05-22T20:51:19.192Z,11.84
2023-05-22T20:53:49.141Z,11.83
2023-05-22T20:56:17.095Z,11.73
2023-05-22T20:58:46.507Z,11.67
2023-05-22T21:01:14.763Z,11.60
2023-05-22T21:03:43.922Z,11.49
2023-05-22T21:06:12.152Z,11.39
2023-05-22T21:08:40.598Z,11.25
2023-05-22T21:11:08.309Z,11.19
2023-05-22T21:13:37.649Z,11.12
2023-05-22T21:16:06.209Z,11.15
2023-05-22T21:18:34.223Z,11.13
2023-05-22T21:21:02.184Z,11.11
2023-05-22T21:23:30.684Z,10.99
2023-05-22T21:25:58.700Z,10.98
2023-05-22T21:28:27.345Z,10.90
2023-05-22T21:30:55.562Z,10.91
2023-05-22T21:33:23.723Z,10.80
2023-05-22T21:35:51.926Z,10.71
2023-05-22T21:38:20.534Z,10.71
2023-05-22T21:40:48.544Z,10.63
2023-05-22T21:43:17.075Z,10.57
2023-05-22T21:45:45.015Z,10.42
2023-05-22T21:48:13.649Z,10.41
2023-05-22T21:50:41.668Z,10.46
2023-05-22T21:53:10.466Z,10.43
2023-05-22T21:55:38.494Z,10.43
2023-05-22T21:58:07.157Z,10.40
2023-05-22T22:00:35.138Z,10.38
2023-05-22T22:03:04.826Z,10.33
2023-05-22T22:05:33.476Z,10.27
2023-05-22T22:08:02.259Z,10.22
2023-05-22T22:10:30.608Z,10.18
2023-05-22T22:12:58.585Z,10.16
2023-05-22T22:15:27.208Z,10.18
2023-05-22T22:17:59.563Z,10.14
2023-05-22T22:20:42.429Z,10.08
2023-05-22T22:23:13.007Z,10.03
2023-05-22T22:25:40.781Z,9.93
2023-05-22T22:28:10.916Z,9.89
2023-05-22T22:30:39.151Z,9.86
2023-05-22T22:33:08.141Z,9.80
2023-05-22T22:35:36.640Z,9.81
2023-05-22T22:38:05.650Z,9.76
2023-05-22T22:40:33.602Z,9.70
2023-05-22T22:43:02.268Z,9.70
2023-05-22T22:45:30.206Z,9.67
2023-05-22T22:47:58.801Z,9.64
2023-05-22T22:50:27.681Z,9.60
2023-05-22T22:52:56.256Z,9.53
2023-05-22T22:55:24.313Z,9.55
2023-05-22T22:57:53.622Z,9.53
2023-05-22T23:00:21.615Z,9.50
2023-05-22T23:02:50.059Z,9.52
2023-05-22T23:05:20.667Z,9.48
2023-05-22T23:07:49.157Z,9.48
2023-05-22T23:10:17.324Z,9.37
2023-05-22T23:12:49.419Z,9.39
2023-05-22T23:15:17.449Z,9.29
2023-05-22T23:17:45.918Z,9.21
2023-05-22T23:20:14.084Z,9.17
2023-05-22T23:22:42.707Z,9.15
2023-05-22T23:25:11.036Z,9.11
2023-05-22T23:27:39.482Z,9.01
2023-05-22T23:30:08.344Z,9.09
2023-05-22T23:32:36.904Z,9.07
2023-05-22T23:35:05.870Z,9.02
2023-05-22T23:37:34.398Z,8.92
2023-05-22T23:40:02.827Z,8.95
2023-05-22T23:42:33.061Z,8.91
2023-05-22T23:45:02.083Z,8.88
2023-05-22T23:47:30.887Z,8.88
2023-05-22T23:49:59.848Z,8.84
2023-05-22T23:52:28.260Z,8.81
2023-05-22T23:54:57.148Z,8.81
2023-05-22T23:57:25.521Z,8.80
2023-05-22T23:59:53.367Z,8.80
